sensor_id;sensor_type;location;lat;lon;timestamp;pressure;altitude;pressure_sealevel;temperature;humidity
71697;BME280;68167;59.120;37.898;2023-04-07T00:00:24;101450.66;;;0.79;54.30
71697;BME280;68167;59.120;37.898;2023-04-07T00:02:51;101502.53;;;1.11;54.01
71697;BME280;68167;59.120;37.898;2023-04-07T00:05:18;101385.00;;;0.37;54.16
71697;BME280;68167;59.120;37.898;2023-04-07T00:07:44;101435.97;;;0.60;53.90
71697;BME280;68167;59.120;37.898;2023-04-07T00:10:10;101516.31;;;1.13;54.43
71697;BME280;68167;59.120;37.898;2023-04-07T00:12:37;101441.41;;;0.67;54.01
71697;BME280;68167;59.120;37.898;2023-04-07T00:15:03;101526.81;;;1.13;54.27
71697;BME280;68167;59.120;37.898;2023-04-07T00:17:30;101434.84;;;0.63;54.63
71697;BME280;68167;59.120;37.898;2023-04-07T00:19:56;101504.13;;;1.04;54.19
71697;BME280;68167;59.120;37.898;2023-04-07T00:22:22;101522.53;;;1.12;54.90
71697;BME280;68167;59.120;37.898;2023-04-07T00:24:49;101471.78;;;0.78;54.50
71697;BME280;68167;59.120;37.898;2023-04-07T00:27:15;101507.50;;;0.96;54.26
71697;BME280;68167;59.120;37.898;2023-04-07T00:29:42;101515.97;;;0.90;55.04
71697;BME280;68167;59.120;37.898;2023-04-07T00:32:12;101508.25;;;0.89;54.72
71697;BME280;68167;59.120;37.898;2023-04-07T00:34:38;101388.91;;;0.15;54.82
71697;BME280;68167;59.120;37.898;2023-04-07T00:37:04;101467.41;;;0.60;54.76
71697;BME280;68167;59.120;37.898;2023-04-07T00:39:31;101515.13;;;0.90;54.83
71697;BME280;68167;59.120;37.898;2023-04-07T00:41:58;101529.75;;;0.92;54.99
71697;BME280;68167;59.120;37.898;2023-04-07T00:44:24;101519.56;;;0.89;55.08
71697;BME280;68167;59.120;37.898;2023-04-07T00:46:50;101419.41;;;0.24;55.13
71697;BME280;68167;59.120;37.898;2023-04-07T00:49:17;101510.81;;;0.81;54.65
71697;BME280;68167;59.120;37.898;2023-04-07T00:51:43;101500.09;;;0.74;54.97
71697;BME280;68167;59.120;37.898;2023-04-07T00:54:11;101532.22;;;0.76;55.09
71697;BME280;68167;59.120;37.898;2023-04-07T00:56:37;101520.97;;;0.84;55.17
71697;BME280;68167;59.120;37.898;2023-04-07T00:59:04;101495.44;;;0.68;54.66
71697;BME280;68167;59.120;37.898;2023-04-07T01:07:03;101449.09;;;0.15;54.86
71697;BME280;68167;59.120;37.898;2023-04-07T01:09:39;101502.03;;;0.37;55.37
71697;BME280;68167;59.120;37.898;2023-04-07T01:14:46;101466.50;;;0.07;55.50
71697;BME280;68167;59.120;37.898;2023-04-07T01:17:33;101481.25;;;0.08;55.50
71697;BME280;68167;59.120;37.898;2023-04-07T01:20:04;101513.53;;;0.26;55.42
71697;BME280;68167;59.120;37.898;2023-04-07T01:22:40;101516.44;;;0.23;55.59
71697;BME280;68167;59.120;37.898;2023-04-07T01:28:21;101529.38;;;0.24;55.52
71697;BME280;68167;59.120;37.898;2023-04-07T01:30:54;101401.59;;;-0.62;55.92
71697;BME280;68167;59.120;37.898;2023-04-07T01:33:22;101517.06;;;0.07;55.73
71697;BME280;68167;59.120;37.898;2023-04-07T01:35:50;101527.78;;;0.14;55.83
71697;BME280;68167;59.120;37.898;2023-04-07T01:38:18;101450.50;;;-0.36;55.67
71697;BME280;68167;59.120;37.898;2023-04-07T01:40:46;101511.59;;;0.00;56.05
71697;BME280;68167;59.120;37.898;2023-04-07T01:43:14;101456.56;;;-0.35;55.76
71697;BME280;68167;59.120;37.898;2023-04-07T01:45:42;101529.19;;;0.08;56.10
71697;BME280;68167;59.120;37.898;2023-04-07T01:48:09;101432.50;;;-0.48;56.27
71697;BME280;68167;59.120;37.898;2023-04-07T01:50:37;101460.97;;;-0.36;55.83
71697;BME280;68167;59.120;37.898;2023-04-07T01:53:04;101523.41;;;0.05;56.31
71697;BME280;68167;59.120;37.898;2023-04-07T01:55:33;101490.63;;;-0.17;56.37
71697;BME280;68167;59.120;37.898;2023-04-07T01:58:04;101510.56;;;-0.07;56.14
71697;BME280;68167;59.120;37.898;2023-04-07T02:00:32;101440.78;;;-0.53;56.09
71697;BME280;68167;59.120;37.898;2023-04-07T02:03:29;101512.91;;;-0.13;56.19
71697;BME280;68167;59.120;37.898;2023-04-07T02:06:04;101540.16;;;-0.06;56.13
71697;BME280;68167;59.120;37.898;2023-04-07T02:08:32;101525.19;;;-0.14;56.45
71697;BME280;68167;59.120;37.898;2023-04-07T02:11:02;101535.22;;;-0.09;56.54
71697;BME280;68167;59.120;37.898;2023-04-07T02:13:36;101518.88;;;-0.21;56.12
71697;BME280;68167;59.120;37.898;2023-04-07T02:16:03;101535.25;;;-0.19;56.41
71697;BME280;68167;59.120;37.898;2023-04-07T02:18:32;101466.28;;;-0.64;56.81
71697;BME280;68167;59.120;37.898;2023-04-07T02:20:59;101525.94;;;-0.31;56.66
71697;BME280;68167;59.120;37.898;2023-04-07T02:23:26;101464.94;;;-0.69;56.75
71697;BME280;68167;59.120;37.898;2023-04-07T02:25:55;101496.09;;;-0.48;56.95
71697;BME280;68167;59.120;37.898;2023-04-07T02:28:22;101507.25;;;-0.46;56.95
71697;BME280;68167;59.120;37.898;2023-04-07T02:30:49;101387.75;;;-1.19;57.08
71697;BME280;68167;59.120;37.898;2023-04-07T02:33:15;101505.19;;;-0.52;57.12
71697;BME280;68167;59.120;37.898;2023-04-07T02:35:42;101529.25;;;-0.39;56.67
71697;BME280;68167;59.120;37.898;2023-04-07T02:38:08;101538.59;;;-0.36;56.82
71697;BME280;68167;59.120;37.898;2023-04-07T02:40:35;101538.88;;;-0.39;57.03
71697;BME280;68167;59.120;37.898;2023-04-07T02:43:01;101543.28;;;-0.40;57.56
71697;BME280;68167;59.120;37.898;2023-04-07T02:45:30;101478.47;;;-0.92;57.67
71697;BME280;68167;59.120;37.898;2023-04-07T02:47:56;101523.78;;;-0.55;57.36
71697;BME280;68167;59.120;37.898;2023-04-07T02:50:23;101462.78;;;-0.92;57.59
71697;BME280;68167;59.120;37.898;2023-04-07T02:52:51;101528.75;;;-0.61;57.39
71697;BME280;68167;59.120;37.898;2023-04-07T02:55:17;101548.81;;;-0.52;57.52
71697;BME280;68167;59.120;37.898;2023-04-07T02:57:44;101459.91;;;-0.99;57.70
71697;BME280;68167;59.120;37.898;2023-04-07T03:00:20;101514.91;;;-0.72;57.72
71697;BME280;68167;59.120;37.898;2023-04-07T03:03:04;101546.50;;;-0.55;57.98
71697;BME280;68167;59.120;37.898;2023-04-07T03:05:35;101520.94;;;-0.71;57.66
71697;BME280;68167;59.120;37.898;2023-04-07T03:08:02;101569.59;;;-0.51;58.02
71697;BME280;68167;59.120;37.898;2023-04-07T03:10:29;101524.25;;;-0.69;57.84
71697;BME280;68167;59.120;37.898;2023-04-07T03:12:56;101552.41;;;-0.53;57.73
71697;BME280;68167;59.120;37.898;2023-04-07T03:15:23;101576.34;;;-0.48;58.34
71697;BME280;68167;59.120;37.898;2023-04-07T03:17:50;101551.72;;;-0.55;58.10
71697;BME280;68167;59.120;37.898;2023-04-07T03:20:17;101578.00;;;-0.47;58.03
71697;BME280;68167;59.120;37.898;2023-04-07T03:22:44;101560.38;;;-0.55;58.25
71697;BME280;68167;59.120;37.898;2023-04-07T03:25:19;101550.75;;;-0.54;58.08
71697;BME280;68167;59.120;37.898;2023-04-07T03:27:45;101532.31;;;-0.62;58.12
71697;BME280;68167;59.120;37.898;2023-04-07T03:30:13;101566.84;;;-0.49;58.06
71697;BME280;68167;59.120;37.898;2023-04-07T03:32:40;101564.66;;;-0.54;58.21
71697;BME280;68167;59.120;37.898;2023-04-07T03:35:06;101493.59;;;-0.96;58.12
71697;BME280;68167;59.120;37.898;2023-04-07T03:37:33;101554.34;;;-0.55;57.97
71697;BME280;68167;59.120;37.898;2023-04-07T03:40:00;101581.56;;;-0.39;58.12
71697;BME280;68167;59.120;37.898;2023-04-07T03:42:31;101547.72;;;-0.50;57.82
71697;BME280;68167;59.120;37.898;2023-04-07T03:45:02;101562.72;;;-0.42;57.66
71697;BME280;68167;59.120;37.898;2023-04-07T03:47:30;101567.50;;;-0.28;57.63
71697;BME280;68167;59.120;37.898;2023-04-07T03:50:00;101574.09;;;-0.24;57.48
71697;BME280;68167;59.120;37.898;2023-04-07T03:52:29;101527.19;;;-0.45;58.15
71697;BME280;68167;59.120;37.898;2023-04-07T03:55:03;101555.78;;;-0.24;57.81
71697;BME280;68167;59.120;37.898;2023-04-07T03:57:31;101554.97;;;-0.24;57.79
71697;BME280;68167;59.120;37.898;2023-04-07T03:59:57;101434.59;;;-0.98;57.38
71697;BME280;68167;59.120;37.898;2023-04-07T04:02:25;101576.13;;;-0.08;57.78
71697;BME280;68167;59.120;37.898;2023-04-07T04:04:54;101570.22;;;-0.10;57.61
71697;BME280;68167;59.120;37.898;2023-04-07T04:07:22;101520.19;;;-0.44;57.65
71697;BME280;68167;59.120;37.898;2023-04-07T04:09:53;101580.66;;;-0.01;57.51
71697;BME280;68167;59.120;37.898;2023-04-07T04:12:19;101581.00;;;0.05;57.72
71697;BME280;68167;59.120;37.898;2023-04-07T04:14:59;101577.50;;;-0.04;57.66
71697;BME280;68167;59.120;37.898;2023-04-07T04:17:26;101488.69;;;-0.52;57.29
71697;BME280;68167;59.120;37.898;2023-04-07T04:19:53;101565.22;;;-0.04;57.59
71697;BME280;68167;59.120;37.898;2023-04-07T04:22:34;101528.94;;;-0.26;57.21
71697;BME280;68167;59.120;37.898;2023-04-07T04:25:01;101571.66;;;0.02;57.68
71697;BME280;68167;59.120;37.898;2023-04-07T04:27:29;101604.69;;;0.13;57.64
71697;BME280;68167;59.120;37.898;2023-04-07T04:30:05;101580.88;;;0.06;57.59
71697;BME280;68167;59.120;37.898;2023-04-07T04:32:49;101533.22;;;-0.25;57.51
71697;BME280;68167;59.120;37.898;2023-04-07T04:35:20;101506.53;;;-0.38;57.14
71697;BME280;68167;59.120;37.898;2023-04-07T04:38:00;101598.63;;;0.12;57.21
71697;BME280;68167;59.120;37.898;2023-04-07T04:40:26;101608.78;;;0.25;57.42
71697;BME280;68167;59.120;37.898;2023-04-07T04:42:53;101562.97;;;0.02;58.21
71697;BME280;68167;59.120;37.898;2023-04-07T04:45:21;101588.66;;;0.25;57.62
71697;BME280;68167;59.120;37.898;2023-04-07T04:47:48;101557.41;;;0.14;57.65
71697;BME280;68167;59.120;37.898;2023-04-07T04:50:15;101555.34;;;0.18;57.25
71697;BME280;68167;59.120;37.898;2023-04-07T04:52:44;101536.63;;;0.13;57.08
71697;BME280;68167;59.120;37.898;2023-04-07T04:55:18;101519.41;;;0.10;57.46
71697;BME280;68167;59.120;37.898;2023-04-07T04:57:45;101574.06;;;0.50;57.34
71697;BME280;68167;59.120;37.898;2023-04-07T05:00:16;101530.91;;;0.27;57.11
71697;BME280;68167;59.120;37.898;2023-04-07T05:02:45;101483.72;;;0.09;57.17
71697;BME280;68167;59.120;37.898;2023-04-07T05:05:13;101619.41;;;0.96;56.99
71697;BME280;68167;59.120;37.898;2023-04-07T05:07:39;101474.69;;;0.21;56.47
71697;BME280;68167;59.120;37.898;2023-04-07T05:10:07;101590.25;;;0.99;56.64
71697;BME280;68167;59.120;37.898;2023-04-07T05:12:37;101543.44;;;0.86;56.28
71697;BME280;68167;59.120;37.898;2023-04-07T05:15:03;101549.75;;;0.93;56.17
71697;BME280;68167;59.120;37.898;2023-04-07T05:17:31;101477.88;;;0.60;56.12
71697;BME280;68167;59.120;37.898;2023-04-07T05:19:59;101600.50;;;1.46;55.92
71697;BME280;68167;59.120;37.898;2023-04-07T05:22:34;101538.03;;;1.23;55.81
71697;BME280;68167;59.120;37.898;2023-04-07T05:25:01;101601.81;;;1.68;55.50
71697;BME280;68167;59.120;37.898;2023-04-07T05:27:29;101595.38;;;1.62;55.98
71697;BME280;68167;59.120;37.898;2023-04-07T05:30:01;101600.88;;;1.77;55.48
71697;BME280;68167;59.120;37.898;2023-04-07T05:32:32;101600.13;;;1.84;55.42
71697;BME280;68167;59.120;37.898;2023-04-07T05:35:05;101530.03;;;1.25;55.19
71697;BME280;68167;59.120;37.898;2023-04-07T05:37:34;101556.22;;;1.69;55.39
71697;BME280;68167;59.120;37.898;2023-04-07T05:40:04;101614.66;;;2.05;54.56
71697;BME280;68167;59.120;37.898;2023-04-07T05:42:30;101531.41;;;1.63;54.40
71697;BME280;68167;59.120;37.898;2023-04-07T05:44:57;101524.50;;;1.62;54.73
71697;BME280;68167;59.120;37.898;2023-04-07T05:47:26;101612.78;;;2.23;54.79
71697;BME280;68167;59.120;37.898;2023-04-07T05:49:53;101587.47;;;2.14;54.46
71697;BME280;68167;59.120;37.898;2023-04-07T05:52:20;101621.25;;;2.43;54.34
71697;BME280;68167;59.120;37.898;2023-04-07T05:54:53;101605.81;;;2.40;53.67
71697;BME280;68167;59.120;37.898;2023-04-07T05:57:20;101616.19;;;2.49;53.86
71697;BME280;68167;59.120;37.898;2023-04-07T05:59:49;101551.97;;;2.10;53.46
71697;BME280;68167;59.120;37.898;2023-04-07T06:02:16;101601.72;;;2.45;53.63
71697;BME280;68167;59.120;37.898;2023-04-07T06:04:45;101540.03;;;2.15;53.28
71697;BME280;68167;59.120;37.898;2023-04-07T06:07:15;101563.59;;;2.41;53.14
71697;BME280;68167;59.120;37.898;2023-04-07T06:09:42;101601.31;;;2.74;53.24
71697;BME280;68167;59.120;37.898;2023-04-07T06:12:09;101612.84;;;2.89;52.93
71697;BME280;68167;59.120;37.898;2023-04-07T06:14:38;101588.00;;;2.84;52.91
71697;BME280;68167;59.120;37.898;2023-04-07T06:17:04;101607.28;;;3.01;52.40
71697;BME280;68167;59.120;37.898;2023-04-07T06:19:31;101603.19;;;3.06;52.18
71697;BME280;68167;59.120;37.898;2023-04-07T06:22:00;101623.75;;;3.19;52.57
71697;BME280;68167;59.120;37.898;2023-04-07T06:24:26;101619.13;;;3.29;52.21
71697;BME280;68167;59.120;37.898;2023-04-07T06:26:53;101618.16;;;3.38;51.97
71697;BME280;68167;59.120;37.898;2023-04-07T06:29:20;101487.56;;;2.64;51.67
71697;BME280;68167;59.120;37.898;2023-04-07T06:31:47;101614.69;;;3.54;51.32
71697;BME280;68167;59.120;37.898;2023-04-07T06:34:13;101612.41;;;3.59;51.22
71697;BME280;68167;59.120;37.898;2023-04-07T06:36:39;101546.44;;;3.28;50.39
71697;BME280;68167;59.120;37.898;2023-04-07T06:39:06;101614.69;;;3.70;50.77
71697;BME280;68167;59.120;37.898;2023-04-07T06:41:33;101567.00;;;3.49;51.00
71697;BME280;68167;59.120;37.898;2023-04-07T06:43:59;101621.59;;;3.87;50.46
71697;BME280;68167;59.120;37.898;2023-04-07T06:46:25;101480.69;;;3.12;50.31
71697;BME280;68167;59.120;37.898;2023-04-07T06:48:52;101626.16;;;4.02;49.73
71697;BME280;68167;59.120;37.898;2023-04-07T06:51:18;101566.78;;;3.75;49.97
71697;BME280;68167;59.120;37.898;2023-04-07T06:53:45;101620.53;;;4.13;49.95
71697;BME280;68167;59.120;37.898;2023-04-07T06:56:13;101572.66;;;3.93;49.29
71697;BME280;68167;59.120;37.898;2023-04-07T06:58:40;101605.69;;;4.20;49.45
71697;BME280;68167;59.120;37.898;2023-04-07T07:01:06;101606.16;;;4.23;49.08
71697;BME280;68167;59.120;37.898;2023-04-07T07:03:33;101603.03;;;4.28;48.28
71697;BME280;68167;59.120;37.898;2023-04-07T07:05:59;101623.06;;;4.45;47.99
71697;BME280;68167;59.120;37.898;2023-04-07T07:08:27;101608.41;;;4.43;47.64
71697;BME280;68167;59.120;37.898;2023-04-07T07:10:54;101619.09;;;4.49;48.52
71697;BME280;68167;59.120;37.898;2023-04-07T07:13:23;101638.13;;;4.59;47.67
71697;BME280;68167;59.120;37.898;2023-04-07T07:15:50;101603.19;;;4.57;47.96
71697;BME280;68167;59.120;37.898;2023-04-07T07:18:17;101538.47;;;4.24;47.64
71697;BME280;68167;59.120;37.898;2023-04-07T07:20:44;101556.97;;;4.47;47.98
71697;BME280;68167;59.120;37.898;2023-04-07T07:23:11;101514.88;;;4.30;46.96
71697;BME280;68167;59.120;37.898;2023-04-07T07:25:37;101624.28;;;4.96;47.08
71697;BME280;68167;59.120;37.898;2023-04-07T07:28:04;101611.59;;;4.92;46.81
71697;BME280;68167;59.120;37.898;2023-04-07T07:30:30;101614.25;;;4.92;46.85
71697;BME280;68167;59.120;37.898;2023-04-07T07:32:56;101587.38;;;4.88;47.05
71697;BME280;68167;59.120;37.898;2023-04-07T07:35:23;101614.78;;;5.10;46.35
71697;BME280;68167;59.120;37.898;2023-04-07T07:37:51;101542.63;;;4.72;46.09
71697;BME280;68167;59.120;37.898;2023-04-07T07:40:18;101585.16;;;5.00;46.25
71697;BME280;68167;59.120;37.898;2023-04-07T07:42:45;101570.97;;;5.01;45.94
71697;BME280;68167;59.120;37.898;2023-04-07T07:45:12;101615.06;;;5.38;46.02
71697;BME280;68167;59.120;37.898;2023-04-07T07:47:39;101621.44;;;5.44;45.15
71697;BME280;68167;59.120;37.898;2023-04-07T07:50:05;101609.94;;;5.37;45.75
71697;BME280;68167;59.120;37.898;2023-04-07T07:52:32;101611.19;;;5.49;45.55
71697;BME280;68167;59.120;37.898;2023-04-07T07:54:58;101607.81;;;5.55;44.61
71697;BME280;68167;59.120;37.898;2023-04-07T07:57:25;101613.41;;;5.60;45.08
71697;BME280;68167;59.120;37.898;2023-04-07T07:59:51;101618.16;;;5.65;44.25
71697;BME280;68167;59.120;37.898;2023-04-07T08:02:18;101616.31;;;5.65;44.24
71697;BME280;68167;59.120;37.898;2023-04-07T08:04:44;101609.47;;;5.56;44.32
71697;BME280;68167;59.120;37.898;2023-04-07T08:07:11;101511.63;;;4.97;44.56
71697;BME280;68167;59.120;37.898;2023-04-07T08:09:37;101607.13;;;5.61;44.10
71697;BME280;68167;59.120;37.898;2023-04-07T08:12:03;101581.88;;;5.58;44.50
71697;BME280;68167;59.120;37.898;2023-04-07T08:14:30;101548.34;;;5.44;43.72
71697;BME280;68167;59.120;37.898;2023-04-07T08:16:56;101609.06;;;5.82;44.12
71697;BME280;68167;59.120;37.898;2023-04-07T08:19:23;101547.34;;;5.45;44.26
71697;BME280;68167;59.120;37.898;2023-04-07T08:21:49;101568.88;;;5.72;44.09
71697;BME280;68167;59.120;37.898;2023-04-07T08:24:16;101557.84;;;5.68;43.27
71697;BME280;68167;59.120;37.898;2023-04-07T08:26:42;101564.34;;;5.80;43.18
71697;BME280;68167;59.120;37.898;2023-04-07T08:29:10;101565.41;;;5.86;43.44
71697;BME280;68167;59.120;37.898;2023-04-07T08:31:36;101625.97;;;6.25;43.98
71697;BME280;68167;59.120;37.898;2023-04-07T08:34:03;101609.84;;;6.35;43.53
71697;BME280;68167;59.120;37.898;2023-04-07T08:36:29;101562.69;;;6.09;43.02
71697;BME280;68167;59.120;37.898;2023-04-07T08:38:56;101598.81;;;6.31;42.78
71697;BME280;68167;59.120;37.898;2023-04-07T08:41:40;101606.81;;;6.38;43.17
71697;BME280;68167;59.120;37.898;2023-04-07T08:44:07;101583.31;;;6.28;42.76
71697;BME280;68167;59.120;37.898;2023-04-07T08:46:40;101559.59;;;6.20;42.79
71697;BME280;68167;59.120;37.898;2023-04-07T08:49:11;101609.44;;;6.52;43.01
71697;BME280;68167;59.120;37.898;2023-04-07T08:51:44;101602.38;;;6.59;42.85
71697;BME280;68167;59.120;37.898;2023-04-07T08:54:13;101558.03;;;6.40;42.61
71697;BME280;68167;59.120;37.898;2023-04-07T08:56:41;101609.38;;;6.82;41.26
71697;BME280;68167;59.120;37.898;2023-04-07T08:59:10;101599.72;;;6.74;41.78
71697;BME280;68167;59.120;37.898;2023-04-07T09:01:38;101595.75;;;6.85;41.68
71697;BME280;68167;59.120;37.898;2023-04-07T09:04:05;101620.19;;;7.02;40.81
71697;BME280;68167;59.120;37.898;2023-04-07T09:06:33;101612.88;;;7.04;41.41
71697;BME280;68167;59.120;37.898;2023-04-07T09:09:00;101595.31;;;6.81;40.54
71697;BME280;68167;59.120;37.898;2023-04-07T09:11:28;101533.50;;;6.68;41.16
71697;BME280;68167;59.120;37.898;2023-04-07T09:13:55;101620.53;;;7.20;41.12
71697;BME280;68167;59.120;37.898;2023-04-07T09:16:22;101610.66;;;7.28;41.22
71697;BME280;68167;59.120;37.898;2023-04-07T09:18:49;101602.31;;;7.32;40.84
71697;BME280;68167;59.120;37.898;2023-04-07T09:21:15;101573.88;;;7.19;40.75
71697;BME280;68167;59.120;37.898;2023-04-07T09:23:42;101545.72;;;7.11;40.97
71697;BME280;68167;59.120;37.898;2023-04-07T09:28:56;101596.13;;;7.46;39.58
71697;BME280;68167;59.120;37.898;2023-04-07T09:31:23;101583.91;;;7.45;39.87
71697;BME280;68167;59.120;37.898;2023-04-07T09:33:53;101539.50;;;7.25;40.00
71697;BME280;68167;59.120;37.898;2023-04-07T09:36:20;101590.66;;;7.75;40.37
71697;BME280;68167;59.120;37.898;2023-04-07T09:38:46;101589.56;;;7.98;40.62
71697;BME280;68167;59.120;37.898;2023-04-07T09:41:14;101534.19;;;7.81;40.45
71697;BME280;68167;59.120;37.898;2023-04-07T09:43:45;101532.59;;;7.87;40.27
71697;BME280;68167;59.120;37.898;2023-04-07T09:46:16;101571.94;;;8.18;39.68
71697;BME280;68167;59.120;37.898;2023-04-07T09:48:44;101589.44;;;8.40;39.39
71697;BME280;68167;59.120;37.898;2023-04-07T09:51:14;101570.16;;;8.32;38.84
71697;BME280;68167;59.120;37.898;2023-04-07T09:53:50;101589.03;;;8.50;39.65
71697;BME280;68167;59.120;37.898;2023-04-07T09:56:18;101539.81;;;8.34;39.46
71697;BME280;68167;59.120;37.898;2023-04-07T09:58:48;101509.94;;;8.25;38.94
71697;BME280;68167;59.120;37.898;2023-04-07T10:01:20;101568.25;;;8.60;38.48
71697;BME280;68167;59.120;37.898;2023-04-07T10:03:47;101581.38;;;8.75;39.10
71697;BME280;68167;59.120;37.898;2023-04-07T10:06:15;101577.28;;;8.79;38.77
71697;BME280;68167;59.120;37.898;2023-04-07T10:08:42;101523.91;;;8.54;38.72
71697;BME280;68167;59.120;37.898;2023-04-07T10:11:09;101566.28;;;8.88;38.49
71697;BME280;68167;59.120;37.898;2023-04-07T10:13:38;101556.09;;;8.92;38.20
71697;BME280;68167;59.120;37.898;2023-04-07T10:16:06;101569.19;;;9.07;38.23
71697;BME280;68167;59.120;37.898;2023-04-07T10:18:34;101511.94;;;8.91;37.36
71697;BME280;68167;59.120;37.898;2023-04-07T10:21:03;101568.56;;;9.31;37.80
71697;BME280;68167;59.120;37.898;2023-04-07T10:23:55;101564.69;;;9.53;38.69
71697;BME280;68167;59.120;37.898;2023-04-07T10:26:27;101563.88;;;9.60;37.14
71697;BME280;68167;59.120;37.898;2023-04-07T10:29:01;101537.88;;;9.62;37.07
71697;BME280;68167;59.120;37.898;2023-04-07T10:31:29;101554.00;;;9.80;36.97
71697;BME280;68167;59.120;37.898;2023-04-07T10:33:56;101561.75;;;9.95;36.71
71697;BME280;68167;59.120;37.898;2023-04-07T10:36:23;101539.41;;;10.02;37.36
71697;BME280;68167;59.120;37.898;2023-04-07T10:41:38;101488.50;;;9.92;36.25
71697;BME280;68167;59.120;37.898;2023-04-07T10:44:07;101533.63;;;10.32;35.44
71697;BME280;68167;59.120;37.898;2023-04-07T10:49:15;101443.03;;;10.00;36.46
71697;BME280;68167;59.120;37.898;2023-04-07T10:51:42;101548.00;;;10.94;36.66
71697;BME280;68167;59.120;37.898;2023-04-07T10:54:21;101543.53;;;11.12;36.74
71697;BME280;68167;59.120;37.898;2023-04-07T10:57:11;101556.25;;;11.42;36.47
71697;BME280;68167;59.120;37.898;2023-04-07T10:59:40;101546.56;;;11.47;34.96
71697;BME280;68167;59.120;37.898;2023-04-07T11:04:44;101534.03;;;11.91;34.65
71697;BME280;68167;59.120;37.898;2023-04-07T11:07:12;101531.81;;;12.06;34.04
71697;BME280;68167;59.120;37.898;2023-04-07T11:09:42;101484.94;;;11.92;33.80
71697;BME280;68167;59.120;37.898;2023-04-07T11:12:21;101527.88;;;12.39;34.24
71697;BME280;68167;59.120;37.898;2023-04-07T11:14:48;101484.94;;;12.40;32.51
71697;BME280;68167;59.120;37.898;2023-04-07T11:17:14;101532.88;;;12.95;32.19
71697;BME280;68167;59.120;37.898;2023-04-07T11:19:52;101545.81;;;13.22;33.15
71697;BME280;68167;59.120;37.898;2023-04-07T11:22:19;101532.13;;;13.30;31.49
71697;BME280;68167;59.120;37.898;2023-04-07T11:24:45;101501.41;;;13.21;31.46
71697;BME280;68167;59.120;37.898;2023-04-07T11:27:12;101530.97;;;13.37;30.11
71697;BME280;68167;59.120;37.898;2023-04-07T11:29:39;101471.25;;;13.02;31.23
71697;BME280;68167;59.120;37.898;2023-04-07T11:32:05;101528.63;;;13.64;31.39
71697;BME280;68167;59.120;37.898;2023-04-07T11:34:33;101471.19;;;13.43;30.22
71697;BME280;68167;59.120;37.898;2023-04-07T11:37:23;101533.34;;;13.97;29.85
71697;BME280;68167;59.120;37.898;2023-04-07T11:39:54;101516.41;;;13.68;29.03
71697;BME280;68167;59.120;37.898;2023-04-07T11:42:37;101518.47;;;13.90;31.72
71697;BME280;68167;59.120;37.898;2023-04-07T11:45:06;101505.88;;;14.02;29.86
71697;BME280;68167;59.120;37.898;2023-04-07T11:47:40;101464.34;;;13.88;29.19
71697;BME280;68167;59.120;37.898;2023-04-07T11:50:08;101492.66;;;14.24;29.77
71697;BME280;68167;59.120;37.898;2023-04-07T11:52:46;101494.44;;;14.46;29.76
71697;BME280;68167;59.120;37.898;2023-04-07T11:55:21;101444.91;;;14.21;29.53
71697;BME280;68167;59.120;37.898;2023-04-07T11:57:50;101459.84;;;14.33;28.31
71697;BME280;68167;59.120;37.898;2023-04-07T12:00:18;101483.81;;;14.40;27.90
71697;BME280;68167;59.120;37.898;2023-04-07T12:02:45;101493.97;;;14.38;28.23
71697;BME280;68167;59.120;37.898;2023-04-07T12:05:11;101487.31;;;14.52;28.58
71697;BME280;68167;59.120;37.898;2023-04-07T12:07:38;101497.88;;;14.59;27.42
71697;BME280;68167;59.120;37.898;2023-04-07T12:10:19;101495.81;;;14.49;28.66
71697;BME280;68167;59.120;37.898;2023-04-07T12:12:46;101507.38;;;14.38;27.42
71697;BME280;68167;59.120;37.898;2023-04-07T12:15:13;101482.56;;;14.42;27.67
71697;BME280;68167;59.120;37.898;2023-04-07T12:17:44;101491.59;;;14.25;27.42
71697;BME280;68167;59.120;37.898;2023-04-07T12:20:12;101439.44;;;13.87;27.95
71697;BME280;68167;59.120;37.898;2023-04-07T12:22:40;101491.03;;;14.23;28.29
71697;BME280;68167;59.120;37.898;2023-04-07T12:25:06;101434.91;;;13.88;27.51
71697;BME280;68167;59.120;37.898;2023-04-07T12:27:33;101425.09;;;13.93;27.18
71697;BME280;68167;59.120;37.898;2023-04-07T12:29:59;101447.88;;;14.07;27.20
71697;BME280;68167;59.120;37.898;2023-04-07T12:32:26;101466.44;;;14.26;28.00
71697;BME280;68167;59.120;37.898;2023-04-07T12:34:53;101479.09;;;14.30;27.56
71697;BME280;68167;59.120;37.898;2023-04-07T12:37:20;101475.91;;;14.16;28.08
71697;BME280;68167;59.120;37.898;2023-04-07T12:39:46;101416.78;;;13.66;27.14
71697;BME280;68167;59.120;37.898;2023-04-07T12:42:12;101466.34;;;14.21;27.46
71697;BME280;68167;59.120;37.898;2023-04-07T12:44:39;101459.78;;;14.57;27.37
71697;BME280;68167;59.120;37.898;2023-04-07T12:47:06;101444.44;;;14.86;27.37
71697;BME280;68167;59.120;37.898;2023-04-07T12:49:33;101456.66;;;15.32;26.32
71697;BME280;68167;59.120;37.898;2023-04-07T12:51:59;101452.25;;;15.42;26.62
71697;BME280;68167;59.120;37.898;2023-04-07T12:54:25;101434.09;;;15.49;26.33
71697;BME280;68167;59.120;37.898;2023-04-07T12:56:53;101412.13;;;15.53;26.49
71697;BME280;68167;59.120;37.898;2023-04-07T12:59:21;101465.63;;;16.25;26.22
71697;BME280;68167;59.120;37.898;2023-04-07T13:01:49;101438.59;;;16.36;24.52
71697;BME280;68167;59.120;37.898;2023-04-07T13:04:15;101451.41;;;16.29;25.06
71697;BME280;68167;59.120;37.898;2023-04-07T13:06:42;101447.66;;;16.30;24.19
71697;BME280;68167;59.120;37.898;2023-04-07T13:09:09;101456.66;;;16.41;24.80
71697;BME280;68167;59.120;37.898;2023-04-07T13:11:35;101407.06;;;16.00;24.71
71697;BME280;68167;59.120;37.898;2023-04-07T13:14:01;101460.44;;;16.45;25.01